Nearby METAR Reports

 

KNUQ - Moffett Nas/Mtn, California, USA
Distance from station: N 9mi, 14km
Updated: Sun, 21-Jul-2019 4:56pm PDT
Clear
Clear
 Wind from NNW
Wind: NNW 10 mph , 17 km/h
Temperature: 73°F , 23°C
Dew Point: 61°F , 16°C
Humidity: 65%
Barometer: 29.90 inHg , 1012.5 hPa
Clouds: Clear
Visibility: 10 miles , 16 km
2019/07/21 23:56 KNUQ 212356Z 33009KT 10SM CLR 23/16 A2990 RMK AO2 SLP127 T02330156 10261 20222 58008 $
KSJC - San Jose, California, USA
Distance from station: NE 9mi, 14km
Updated: Sun, 21-Jul-2019 4:53pm PDT
Mostly Cloudy
Mostly Cloudy
 Wind from NNW
Wind: NNW 13 mph , 20 km/h
Temperature: 79°F , 26°C
Dew Point: 61°F , 16°C
Humidity: 54%
Barometer: 29.89 inHg , 1012.2 hPa
Clouds: Mostly Cloudy
Visibility: 10 miles , 16 km
Cloud details: Few Clouds 5500 ft
Partly Cloudy 8500 ft
Mostly Cloudy 12000 ft
2019/07/21 23:53 KSJC 212353Z 33011KT 10SM FEW055 SCT085 BKN120 26/16 A2989 RMK AO2 SLP120 T02560156 10278 20222 58007 $
 
KRHV - San Jose/Reid, California, USA
Distance from station: ENE 12mi, 19km
Updated: Sun, 21-Jul-2019 4:47pm PDT
Partly Cloudy
Partly Cloudy
 Wind from WNW
Wind: WNW 10 mph , 17 km/h
Temperature: 81°F , 27°C
Heat Index: 82°F , 28°C
Dew Point: 61°F , 16°C
Humidity: 51%
Barometer: 29.89 inHg , 1012.2 hPa
Clouds: Partly Cloudy
Visibility: 10 miles , 16 km
Cloud details: Partly Cloudy 15000 ft
2019/07/21 23:47 KRHV 212347Z 29009KT 10SM SCT150 27/16 A2989
KPAO - Palo Alto, California, USA
Distance from station: NNW 14mi, 23km
Updated: Sun, 21-Jul-2019 4:47pm PDT
Partly Cloudy
Partly Cloudy
 Wind from NW
Wind: NW 12 mph , 19 km/h
Temperature: 72°F , 22°C
Dew Point: 57°F , 14°C
Humidity: 61%
Barometer: 29.90 inHg , 1012.5 hPa
Clouds: Partly Cloudy
Visibility: 10 miles , 16 km
Cloud details: Partly Cloudy 4500 ft
2019/07/21 23:47 KPAO 212347Z 32010KT 10SM SCT045 22/14 A2990
 
KSQL - San Carlos Airpo, California, USA
Distance from station: NW 21mi, 34km
Updated: Sun, 21-Jul-2019 4:52pm PDT
Mostly Cloudy
Mostly Cloudy
 Wind from NNW
Wind: NNW 7 mph , 11 km/h
Temperature: 73°F , 23°C
Dew Point: 57°F , 14°C
Humidity: 57%
Barometer: 29.91 inHg , 1012.9 hPa
Clouds: Mostly Cloudy
Visibility: 10 miles , 16 km
Cloud details: Partly Cloudy 4500 ft
Mostly Cloudy 20000 ft
2019/07/21 23:52 KSQL 212352Z 33006KT 10SM SCT045 BKN200 23/14 A2991
KWVI - Watsonville, California, USA
Distance from station: SSE 27mi, 44km
Updated: Sun, 21-Jul-2019 4:53pm PDT
Clear
Clear
 Wind from WSW
Wind: WSW 8 mph , 13 km/h
Temperature: 66°F , 19°C
Dew Point: 54°F , 12°C
Humidity: 64%
Barometer: 29.94 inHg , 1013.9 hPa
Clouds: Clear
Visibility: 10 miles , 16 km
2019/07/21 23:53 KWVI 212353Z AUTO 24007KT 10SM CLR 19/12 A2994 RMK AO2 SLP136 T01940122 10211 20172 58011
 
KHWD - Hayward, California, USA
Distance from station: N 28mi, 44km
Updated: Sun, 21-Jul-2019 4:54pm PDT
Clear
Clear
 Wind from W
Wind: W 13 mph , 20 km/h
Temperature: 72°F , 22°C
Dew Point: 57°F , 14°C
Humidity: 61%
Barometer: 29.90 inHg , 1012.5 hPa
Clouds: Clear
Visibility: 10 miles , 16 km
2019/07/21 23:54 KHWD 212354Z 28011KT 10SM CLR 22/14 A2990 RMK AO2 SLP133 T02220144 10256 20206 57008
KSFO - San Francisco, California, USA
Distance from station: NW 30mi, 49km
Updated: Sun, 21-Jul-2019 4:56pm PDT
Mostly Cloudy
Mostly Cloudy
 Wind from WNW
Wind: WNW 15 mph , 24 km/h
Temperature: 70°F , 21°C
Dew Point: 55°F , 13°C
Humidity: 60%
Barometer: 29.90 inHg , 1012.5 hPa
Clouds: Mostly Cloudy
Visibility: 10 miles , 16 km
Cloud details: Few Clouds 700 ft
Few Clouds 4500 ft
Partly Cloudy 18000 ft
Mostly Cloudy 20000 ft
2019/07/21 23:56 KSFO 212356Z 30013KT 10SM FEW007 FEW045 SCT180 BKN200 21/13 A2990 RMK AO2 SLP125 T02110128 10228 20194 58009
 
KHAF - Half Moon Bay, California, USA
Distance from station: WNW 31mi, 50km
Updated: Sun, 21-Jul-2019 5:20pm PDT
Overcast
Overcast
 Wind from S
Wind: S 8 mph , 13 km/h
Temperature: 59°F , 15°C
Dew Point: 55°F , 13°C
Humidity: 88%
Barometer: 29.94 inHg , 1013.9 hPa
Clouds: Overcast
Visibility: 10 miles , 16 km
Cloud details: Overcast 900 ft
2019/07/22 00:20 KHAF 220020Z AUTO 18007KT 10SM OVC009 15/13 A2994 RMK AO2
KOAK - Oakland, California, USA
Distance from station: NNW 31mi, 50km
Updated: Sun, 21-Jul-2019 4:53pm PDT
Mostly Cloudy
Mostly Cloudy
 Wind from WNW
Wind: WNW 14 mph , 22 km/h
Temperature: 72°F , 22°C
Dew Point: 55°F , 13°C
Humidity: 57%
Barometer: 29.91 inHg , 1012.9 hPa
Clouds: Mostly Cloudy
Visibility: 10 miles , 16 km
Cloud details: Few Clouds 1000 ft
Few Clouds 5000 ft
Partly Cloudy 15000 ft
Mostly Cloudy 20000 ft
2019/07/21 23:53 KOAK 212353Z 29012KT 10SM FEW010 FEW050 SCT150 BKN200 22/13 A2991 RMK AO2 SLP128 T02170133 10228 20200 58010 $
 
KLVK - Livermore, California, USA
Distance from station: NNE 31mi, 51km
Updated: Sun, 21-Jul-2019 4:53pm PDT
Clear
Clear
 Wind from WNW
Wind: WNW 12 mph , 19 km/h
Temperature: 86°F , 30°C
Dew Point: 52°F , 11°C
Humidity: 31%
Barometer: 29.86 inHg , 1011.2 hPa
Clouds: Clear
Visibility: 10 miles , 16 km
2019/07/21 23:53 KLVK 212353Z 29010KT 10SM CLR 30/11 A2986 RMK AO2 SLP109 T03000111 10328 20233 57009
KCVH - Hollister Muni, California, USA
Distance from station: SE 42mi, 68km
Updated: Sun, 21-Jul-2019 5:20pm PDT
Clear
Clear
 Wind from WSW
Wind: WSW 16 mph , 26 km/h
Temperature: 75°F , 24°C
Dew Point: 57°F , 14°C
Humidity: 54%
Barometer: 29.90 inHg , 1012.5 hPa
Clouds: Clear
Visibility: 10 miles , 16 km
2019/07/22 00:20 KCVH 220020Z AUTO 25014KT 10SM CLR 24/14 A2990 RMK A01
 
KSNS - Salinas, California, USA
Distance from station: SSE 48mi, 77km
Updated: Sun, 21-Jul-2019 4:53pm PDT
Clear
Clear
 Wind from NNW
Wind: NNW 15 mph , 24 km/h
Temperature: 66°F , 19°C
Dew Point: 55°F , 13°C
Humidity: 68%
Barometer: 29.93 inHg , 1013.5 hPa
Clouds: Clear
Visibility: 10 miles , 16 km
2019/07/21 23:53 KSNS 212353Z 33013KT 10SM CLR 19/13 A2993 RMK AO2 SLP143 T01940128 10211 20167 58006
KMRY - Monterey, California, USA
Distance from station: SSE 49mi, 78km
Updated: Sun, 21-Jul-2019 4:54pm PDT
Clear
Clear
 Wind from WSW
Wind: WSW 13 mph , 20 km/h
Temperature: 68°F , 20°C
Dew Point: 54°F , 12°C
Humidity: 60%
Barometer: 29.94 inHg , 1013.9 hPa
Clouds: Clear
Visibility: 10 miles , 16 km
2019/07/21 23:54 KMRY 212354Z 25011KT 10SM CLR 20/12 A2994 RMK AO2 SLP149 T02000122 10206 20167 58011
 
KCCR - Concord, California, USA
Distance from station: N 50mi, 81km
Updated: Sun, 21-Jul-2019 4:53pm PDT
Clear
Clear
 Wind from NW
Wind: NW 12 mph , 19 km/h
Temperature: 88°F , 31°C
Dew Point: 55°F , 13°C
Humidity: 33%
Barometer: 29.86 inHg , 1011.2 hPa
Clouds: Clear
Visibility: 10 miles , 16 km
2019/07/21 23:53 KCCR 212353Z 32010KT 10SM CLR 31/13 A2986 RMK AO2 SLP099 T03060128 10317 20206 56013

Metar display script from Saratoga-Weather.org